Time;durP1;ratioP1;P1;durP2;ratioP2;P2;SDS_P1;SDS_P2;PMS_P1;PMS_P2;Temp;Humidity;BMP_temperature;BMP_pressure;BME280_temperature;BME280_humidity;BME280_pressure;Samples;Min_cycle;Max_cycle;Signal;HPM_P1;HPM_P2
2023/06/20 00:00:48;;;;;;;1.10;1.00;;;19.00;99.90;;;;;;5013504;28;20666;-71
2023/06/20 00:03:15;;;;;;;3.43;3.10;;;19.10;99.90;;;;;;5013336;28;20188;-70
2023/06/20 00:05:41;;;;;;;2.23;2.13;;;19.10;99.90;;;;;;5013515;28;20423;-70
2023/06/20 00:08:06;;;;;;;2.07;1.97;;;19.20;99.90;;;;;;5013299;28;20451;-70
2023/06/20 00:10:32;;;;;;;4.30;2.57;;;19.10;99.90;;;;;;5013664;28;20230;-71
2023/06/20 00:12:59;;;;;;;1.53;1.43;;;19.10;99.90;;;;;;5013421;28;20170;-72
2023/06/20 00:15:25;;;;;;;2.33;2.13;;;19.00;99.90;;;;;;5013779;28;20615;-71
2023/06/20 00:18:01;;;;;;;1.33;1.23;;;19.00;99.90;;;;;;5013437;28;20433;-70
2023/06/20 00:20:27;;;;;;;2.53;2.33;;;19.10;99.90;;;;;;5013302;28;20459;-69
2023/06/20 00:22:54;;;;;;;2.17;2.07;;;19.00;99.90;;;;;;5013360;28;20416;-70
2023/06/20 00:25:20;;;;;;;2.10;2.00;;;19.00;99.90;;;;;;5013324;28;20790;-69
2023/06/20 00:27:45;;;;;;;1.07;1.00;;;19.10;99.90;;;;;;5013366;28;20444;-71
2023/06/20 00:30:12;;;;;;;2.63;2.40;;;19.00;99.90;;;;;;5013184;28;20450;-71
2023/06/20 00:32:37;;;;;;;3.67;2.23;;;19.00;99.90;;;;;;5013106;28;20261;-69
2023/06/20 00:35:03;;;;;;;1.90;1.33;;;19.00;99.90;;;;;;5013446;28;20565;-71
2023/06/20 00:37:29;;;;;;;1.37;1.27;;;18.90;99.90;;;;;;5013269;28;20200;-70
2023/06/20 00:39:54;;;;;;;1.10;1.10;;;19.00;99.90;;;;;;5013243;28;20261;-71
2023/06/20 00:42:23;;;;;;;1.70;1.40;;;19.00;99.90;;;;;;5013016;28;20543;-71
2023/06/20 00:44:52;;;;;;;1.10;1.10;;;18.90;99.90;;;;;;5013075;28;20180;-70
2023/06/20 00:47:19;;;;;;;1.60;1.50;;;18.80;99.90;;;;;;5013555;28;20496;-70
2023/06/20 00:49:46;;;;;;;1.87;1.77;;;18.80;99.90;;;;;;5013074;28;20464;-69
2023/06/20 00:52:14;;;;;;;2.90;1.93;;;18.80;99.90;;;;;;5012815;28;20494;-71
2023/06/20 00:54:47;;;;;;;3.33;2.03;;;18.80;99.90;;;;;;5013200;28;20448;-69
2023/06/20 00:57:14;;;;;;;1.07;0.97;;;18.70;99.90;;;;;;5013148;28;20477;-71
2023/06/20 00:59:49;;;;;;;1.03;0.93;;;18.80;99.90;;;;;;5012916;28;20421;-72
2023/06/20 01:02:15;;;;;;;1.17;1.17;;;18.70;99.90;;;;;;5014120;28;20438;-72
2023/06/20 01:04:45;;;;;;;1.50;1.40;;;18.80;99.90;;;;;;5016649;28;20406;-72
2023/06/20 01:07:14;;;;;;;1.37;1.27;;;18.70;99.90;;;;;;5016408;28;20434;-69
2023/06/20 01:09:45;;;;;;;1.10;1.10;;;18.70;99.90;;;;;;4998545;28;20465;-68
2023/06/20 01:12:28;;;;;;;1.57;1.20;;;18.60;99.90;;;;;;5016111;28;20407;-70
2023/06/20 01:15:15;;;;;;;1.93;1.83;;;18.60;99.90;;;;;;5016393;28;20401;-71
2023/06/20 01:17:51;;;;;;;2.57;2.03;;;18.60;99.90;;;;;;5016306;28;20840;-70
2023/06/20 01:20:43;;;;;;;1.50;1.40;;;18.60;99.90;;;;;;5016204;28;20403;-72
2023/06/20 01:23:13;;;;;;;1.50;0.90;;;18.60;99.90;;;;;;5016077;28;20498;-71
2023/06/20 01:25:59;;;;;;;1.33;1.23;;;18.70;99.90;;;;;;5016175;28;20411;-71
2023/06/20 01:28:31;;;;;;;2.93;2.50;;;18.70;99.90;;;;;;5016162;28;20524;-71
2023/06/20 01:31:03;;;;;;;2.53;1.40;;;18.70;99.90;;;;;;5015839;28;20451;-71
2023/06/20 01:33:49;;;;;;;1.07;1.07;;;18.60;99.90;;;;;;5015985;28;20411;-70
2023/06/20 01:36:18;;;;;;;1.50;1.40;;;18.60;99.90;;;;;;5016168;28;20400;-68
2023/06/20 01:38:45;;;;;;;1.87;1.77;;;18.60;99.90;;;;;;5015757;28;20439;-68
2023/06/20 01:41:15;;;;;;;2.60;2.50;;;18.60;99.90;;;;;;5015585;28;20499;-70
2023/06/20 01:43:44;;;;;;;19.60;2.57;;;18.60;99.90;;;;;;5015706;28;20498;-68
2023/06/20 01:46:12;;;;;;;1.37;1.27;;;18.60;99.90;;;;;;5015771;28;20750;-69
2023/06/20 01:48:40;;;;;;;2.57;2.00;;;18.50;99.90;;;;;;5015569;28;20467;-68
2023/06/20 01:51:06;;;;;;;2.17;1.60;;;18.50;99.90;;;;;;5015477;28;20459;-68
2023/06/20 01:53:34;;;;;;;1.77;1.67;;;18.50;99.90;;;;;;5015761;28;20406;-72
2023/06/20 01:56:01;;;;;;;1.77;1.70;;;18.50;99.90;;;;;;5015699;28;20409;-69
2023/06/20 01:58:29;;;;;;;1.20;1.10;;;18.50;99.90;;;;;;5015401;28;20919;-69
2023/06/20 02:00:57;;;;;;;1.27;1.17;;;18.50;99.90;;;;;;5015537;28;20445;-68
2023/06/20 02:03:26;;;;;;;1.60;1.60;;;18.50;99.90;;;;;;5015411;28;20413;-72
2023/06/20 02:05:54;;;;;;;1.53;1.43;;;18.50;99.90;;;;;;5015454;28;20456;-69
2023/06/20 02:08:21;;;;;;;1.37;1.30;;;18.50;99.90;;;;;;5015161;28;20547;-71
2023/06/20 02:10:49;;;;;;;2.67;2.47;;;18.60;99.90;;;;;;5015175;28;20446;-70
2023/06/20 02:13:15;;;;;;;1.60;1.50;;;18.60;99.90;;;;;;5014884;28;20408;-71
2023/06/20 02:15:41;;;;;;;3.00;2.80;;;18.70;99.90;;;;;;5015289;28;20489;-71
2023/06/20 02:18:07;;;;;;;3.20;2.47;;;18.60;99.90;;;;;;5014951;28;20430;-69
2023/06/20 02:20:33;;;;;;;1.33;1.23;;;18.60;99.90;;;;;;5014977;28;20411;-70
2023/06/20 02:23:01;;;;;;;2.30;2.10;;;18.60;99.90;;;;;;5014881;28;20173;-72
2023/06/20 02:25:31;;;;;;;2.57;2.47;;;18.60;99.90;;;;;;5015161;28;20404;-70
2023/06/20 02:27:57;;;;;;;5.03;3.97;;;18.60;99.90;;;;;;5014878;28;20433;-71
2023/06/20 02:30:26;;;;;;;2.67;2.57;;;18.70;99.90;;;;;;5014884;28;20577;-71
2023/06/20 02:32:55;;;;;;;5.40;2.63;;;18.70;99.90;;;;;;5014555;28;20499;-71
2023/06/20 02:35:22;;;;;;;2.07;1.97;;;18.60;99.90;;;;;;5014724;28;20406;-70
2023/06/20 02:37:49;;;;;;;2.47;2.33;;;18.60;99.90;;;;;;5014649;28;20447;-69
2023/06/20 02:40:14;;;;;;;2.33;2.13;;;18.60;99.90;;;;;;5014796;28;20411;-69
2023/06/20 02:42:40;;;;;;;3.77;3.27;;;18.60;99.90;;;;;;5014602;28;20769;-71
2023/06/20 02:45:07;;;;;;;2.90;2.70;;;18.50;99.90;;;;;;5014813;28;20214;-70
2023/06/20 02:47:55;;;;;;;1.93;1.83;;;18.50;99.90;;;;;;5014632;28;20195;-69
2023/06/20 02:50:29;;;;;;;2.17;1.97;;;18.40;99.90;;;;;;5014547;28;20455;-71
2023/06/20 02:53:13;;;;;;;3.90;2.03;;;18.50;99.90;;;;;;5014411;28;20424;-68
2023/06/20 02:55:45;;;;;;;1.97;1.80;;;18.50;99.90;;;;;;5014598;28;20399;-70
2023/06/20 02:58:12;;;;;;;2.03;1.93;;;18.50;99.90;;;;;;5014400;28;20445;-71
2023/06/20 03:00:44;;;;;;;3.27;2.97;;;18.50;99.90;;;;;;5014559;28;20458;-71
2023/06/20 03:03:14;;;;;;;2.80;2.50;;;18.40;99.90;;;;;;5014229;28;20513;-69
2023/06/20 03:05:44;;;;;;;4.00;3.53;;;18.40;99.90;;;;;;5014441;28;20408;-70
2023/06/20 03:08:15;;;;;;;2.60;2.40;;;18.40;99.90;;;;;;5014049;28;20451;-68
2023/06/20 03:10:42;;;;;;;3.27;3.07;;;18.30;99.90;;;;;;5014047;28;20460;-71
2023/06/20 03:13:13;;;;;;;2.67;2.57;;;18.30;99.90;;;;;;4996380;28;20470;-69
2023/06/20 03:15:39;;;;;;;1.23;1.20;;;18.20;99.90;;;;;;5014238;28;20404;-71
2023/06/20 03:18:04;;;;;;;4.47;3.73;;;18.30;99.90;;;;;;5014103;28;20432;-69
2023/06/20 03:20:30;;;;;;;3.03;2.77;;;18.30;99.90;;;;;;5014232;28;20209;-71
2023/06/20 03:22:56;;;;;;;2.17;1.97;;;;;;;;;;5013820;28;20644;-69
2023/06/20 03:25:22;;;;;;;1.83;1.73;;;18.20;99.90;;;;;;5013487;28;20183;-69
2023/06/20 03:27:48;;;;;;;2.67;2.50;;;18.30;99.90;;;;;;5014137;28;20430;-71
2023/06/20 03:30:14;;;;;;;1.90;1.80;;;18.30;99.90;;;;;;5014165;28;20498;-71
2023/06/20 03:32:40;;;;;;;2.33;2.13;;;18.30;99.90;;;;;;5013286;28;20190;-71
2023/06/20 03:35:07;;;;;;;4.03;3.63;;;18.30;99.90;;;;;;5014008;28;20472;-69
2023/06/20 03:37:33;;;;;;;3.03;2.17;;;18.30;99.90;;;;;;5013697;28;20196;-69
2023/06/20 03:39:59;;;;;;;2.27;1.67;;;18.30;99.90;;;;;;5013822;28;20457;-69
2023/06/20 03:42:25;;;;;;;2.60;2.37;;;18.30;99.90;;;;;;5013669;28;20770;-69
2023/06/20 03:44:50;;;;;;;1.40;1.30;;;18.30;99.90;;;;;;5013930;28;20464;-69
2023/06/20 03:47:16;;;;;;;2.23;2.03;;;18.20;99.90;;;;;;5013507;28;20249;-71
2023/06/20 03:49:42;;;;;;;2.13;2.03;;;18.20;99.90;;;;;;5013779;28;20258;-70
2023/06/20 03:52:08;;;;;;;1.87;1.77;;;18.20;99.90;;;;;;5013747;28;20774;-71
2023/06/20 03:54:37;;;;;;;2.90;2.00;;;18.20;99.90;;;;;;5013910;28;20168;-68
2023/06/20 03:57:03;;;;;;;2.97;2.77;;;18.20;99.90;;;;;;5013636;28;20182;-69
2023/06/20 03:59:29;;;;;;;3.90;2.83;;;18.20;99.90;;;;;;5013585;28;20419;-70
2023/06/20 04:01:55;;;;;;;3.00;2.77;;;18.30;99.90;;;;;;5013275;28;20411;-69
2023/06/20 04:04:21;;;;;;;3.90;3.43;;;18.30;99.90;;;;;;5013447;28;20207;-69
2023/06/20 04:06:49;;;;;;;1.93;1.83;;;18.00;99.90;;;;;;5013343;28;20407;-70
2023/06/20 04:09:19;;;;;;;5.03;4.63;;;18.10;99.90;;;;;;5013216;28;20439;-71
2023/06/20 04:11:45;;;;;;;4.10;2.23;;;18.00;99.90;;;;;;5013266;28;20406;-71
2023/06/20 04:14:11;;;;;;;2.30;2.07;;;18.00;99.90;;;;;;5013541;28;20411;-70
2023/06/20 04:16:37;;;;;;;1.63;1.53;;;18.00;99.90;;;;;;5013399;28;20762;-71
2023/06/20 04:19:03;;;;;;;2.77;2.00;;;18.00;99.90;;;;;;5013240;28;20657;-71
2023/06/20 04:21:31;;;;;;;1.23;1.13;;;17.90;99.90;;;;;;5013121;28;20399;-70
2023/06/20 04:23:57;;;;;;;4.00;2.37;;;17.90;99.90;;;;;;5013527;28;20913;-68
2023/06/20 04:26:23;;;;;;;2.03;1.80;;;18.00;99.90;;;;;;5013355;28;20406;-71
2023/06/20 04:28:49;;;;;;;3.10;2.40;;;;;;;;;;5013224;28;20758;-72
2023/06/20 04:31:14;;;;;;;2.63;2.53;;;18.30;99.90;;;;;;5013087;28;20676;-71
2023/06/20 04:33:46;;;;;;;4.70;4.30;;;18.30;99.90;;;;;;5013148;28;20410;-71
2023/06/20 04:36:14;;;;;;;2.10;1.90;;;18.40;99.90;;;;;;5013306;28;20503;-69
2023/06/20 04:38:41;;;;;;;2.47;2.27;;;18.40;99.90;;;;;;5016647;28;20480;-68
2023/06/20 04:41:06;;;;;;;2.10;2.00;;;18.40;99.90;;;;;;5016938;28;20738;-68
2023/06/20 04:43:32;;;;;;;2.10;2.00;;;18.40;99.90;;;;;;5016951;28;20415;-69
2023/06/20 04:45:58;;;;;;;10.77;3.13;;;18.50;99.90;;;;;;5016945;28;20663;-69
2023/06/20 04:48:38;;;;;;;1.67;1.23;;;18.70;99.90;;;;;;5016701;28;20191;-72
2023/06/20 04:51:07;;;;;;;2.10;2.00;;;18.80;99.90;;;;;;5016519;28;20520;-71
2023/06/20 04:53:34;;;;;;;3.97;3.03;;;18.90;99.90;;;;;;5016851;28;20407;-71
2023/06/20 04:55:59;;;;;;;4.33;3.50;;;19.00;99.90;;;;;;5016763;28;20419;-69
2023/06/20 04:58:28;;;;;;;2.20;1.93;;;19.10;99.90;;;;;;5016477;28;20903;-69
2023/06/20 05:01:00;;;;;;;2.43;1.80;;;19.20;99.90;;;;;;5016500;28;20169;-71
2023/06/20 05:03:26;;;;;;;2.23;2.03;;;19.20;99.90;;;;;;5016551;28;20426;-71
2023/06/20 05:05:52;;;;;;;3.97;2.90;;;19.20;99.90;;;;;;5016543;28;20411;-69
2023/06/20 05:08:18;;;;;;;1.80;1.70;;;19.20;99.90;;;;;;5016188;28;20261;-69
2023/06/20 05:10:43;;;;;;;3.20;2.83;;;19.10;99.90;;;;;;5016203;28;20445;-69
2023/06/20 05:13:09;;;;;;;2.23;2.00;;;19.10;99.90;;;;;;5016157;28;20439;-68
2023/06/20 05:15:35;;;;;;;2.47;2.37;;;19.10;99.90;;;;;;5016302;28;20218;-71
2023/06/20 05:18:01;;;;;;;2.47;2.37;;;;;;;;;;5016223;28;20211;-69
2023/06/20 05:20:27;;;;;;;2.87;2.63;;;19.40;99.90;;;;;;5016202;28;20254;-71
2023/06/20 05:22:52;;;;;;;2.43;2.17;;;19.50;99.90;;;;;;5016160;28;20493;-70
2023/06/20 05:25:18;;;;;;;2.97;2.77;;;19.70;99.90;;;;;;5016285;28;20175;-70
2023/06/20 05:27:44;;;;;;;9.03;2.10;;;19.90;99.90;;;;;;5016003;28;20207;-70
2023/06/20 05:30:10;;;;;;;1.80;1.70;;;20.00;99.90;;;;;;5016143;28;20283;-69
2023/06/20 05:32:36;;;;;;;2.43;2.23;;;20.10;99.90;;;;;;5015885;28;20402;-71
2023/06/20 05:35:01;;;;;;;3.07;2.80;;;20.10;99.90;;;;;;5016028;28;20840;-69
2023/06/20 05:37:30;;;;;;;1.83;1.73;;;20.20;99.90;;;;;;5015963;28;20596;-72
2023/06/20 05:39:56;;;;;;;2.87;2.67;;;20.30;99.90;;;;;;5015774;28;20723;-71
2023/06/20 05:42:22;;;;;;;2.33;2.13;;;20.60;99.90;;;;;;5015610;28;20405;-72
2023/06/20 05:44:48;;;;;;;4.93;2.23;;;21.10;99.90;;;;;;5015968;28;20937;-70
2023/06/20 05:47:17;;;;;;;2.90;2.70;;;21.50;99.90;;;;;;5015461;28;20207;-71
2023/06/20 05:49:44;;;;;;;1.87;1.77;;;21.80;99.90;;;;;;5015467;28;20241;-69
2023/06/20 05:52:09;;;;;;;4.53;3.47;;;21.90;99.90;;;;;;5015421;28;20932;-72
2023/06/20 05:54:36;;;;;;;2.33;2.17;;;22.10;99.90;;;;;;5015526;28;20409;-72
2023/06/20 05:57:03;;;;;;;1.50;1.40;;;22.20;99.90;;;;;;5015446;28;20187;-71
2023/06/20 05:59:28;;;;;;;1.67;1.57;;;22.30;99.90;;;;;;5015394;28;20410;-71
2023/06/20 06:01:54;;;;;;;1.77;1.67;;;22.50;99.90;;;;;;5015187;28;20418;-69
2023/06/20 06:04:20;;;;;;;1.67;1.57;;;22.70;99.90;;;;;;5015460;28;20175;-69
2023/06/20 06:06:45;;;;;;;1.93;1.80;;;23.40;99.90;;;;;;5015371;28;20251;-70
2023/06/20 06:09:11;;;;;;;2.47;2.20;;;23.20;99.90;;;;;;5015046;28;20644;-70
2023/06/20 06:11:36;;;;;;;1.90;1.77;;;23.50;99.90;;;;;;5015062;28;20172;-71
2023/06/20 06:14:02;;;;;;;3.23;2.20;;;23.80;99.90;;;;;;5015200;28;20171;-71
2023/06/20 06:16:28;;;;;;;2.20;2.00;;;24.00;99.90;;;;;;5015153;28;20190;-72
2023/06/20 06:18:53;;;;;;;1.63;1.50;;;24.30;99.90;;;;;;5015037;28;20219;-72
2023/06/20 06:21:19;;;;;;;2.30;2.20;;;24.60;99.90;;;;;;5015035;28;20595;-70
2023/06/20 06:23:46;;;;;;;1.90;1.27;;;24.60;99.30;;;;;;5014918;28;20174;-71
2023/06/20 06:26:12;;;;;;;1.77;1.50;;;24.60;98.30;;;;;;5014948;28;20171;-72
2023/06/20 06:28:37;;;;;;;1.60;1.50;;;24.60;98.30;;;;;;5014830;28;20392;-69
2023/06/20 06:31:11;;;;;;;1.43;1.20;;;24.70;98.50;;;;;;5014786;28;20535;-72
2023/06/20 06:33:37;;;;;;;1.87;1.70;;;24.80;98.70;;;;;;5014998;28;20529;-70
2023/06/20 06:36:04;;;;;;;1.30;1.20;;;25.00;98.20;;;;;;5014867;28;20852;-71
2023/06/20 06:38:32;;;;;;;2.97;1.77;;;25.30;97.30;;;;;;4997022;28;20909;-72
2023/06/20 06:40:59;;;;;;;2.70;1.70;;;25.80;97.30;;;;;;5014494;28;20407;-72
2023/06/20 06:43:25;;;;;;;1.43;1.33;;;26.90;96.20;;;;;;5014712;28;20396;-71
2023/06/20 06:45:51;;;;;;;2.07;1.97;;;27.90;93.50;;;;;;5014901;28;20465;-71
2023/06/20 06:48:17;;;;;;;1.40;1.30;;;28.70;90.90;;;;;;5014456;28;20428;-72
2023/06/20 06:50:43;;;;;;;0.90;0.90;;;28.90;90.20;;;;;;5014332;28;20446;-72
2023/06/20 06:53:12;;;;;;;1.40;1.30;;;29.20;88.60;;;;;;5014307;28;20178;-72
2023/06/20 06:55:38;;;;;;;1.00;0.90;;;29.70;89.40;;;;;;5014404;28;20422;-73
2023/06/20 06:58:03;;;;;;;1.17;1.07;;;30.60;88.70;;;;;;5014346;28;20437;-72
2023/06/20 07:00:29;;;;;;;1.50;1.40;;;31.50;82.60;;;;;;5013744;28;20210;-73
2023/06/20 07:02:55;;;;;;;1.27;1.17;;;32.20;78.50;;;;;;5014129;28;20163;-72
2023/06/20 07:05:21;;;;;;;1.23;1.13;;;32.80;74.00;;;;;;5014447;28;20418;-70
2023/06/20 07:07:46;;;;;;;1.47;1.20;;;33.00;73.50;;;;;;5014078;28;20278;-72
2023/06/20 07:10:12;;;;;;;2.47;1.67;;;33.00;70.10;;;;;;5014387;28;20199;-72
2023/06/20 07:12:38;;;;;;;2.53;1.77;;;32.90;70.60;;;;;;5014097;28;20172;-71
2023/06/20 07:15:04;;;;;;;1.53;1.23;;;33.00;72.40;;;;;;5014255;28;20171;-71
2023/06/20 07:17:30;;;;;;;1.23;1.13;;;33.10;70.50;;;;;;5014034;28;20435;-73
2023/06/20 07:19:55;;;;;;;1.73;1.40;;;33.50;69.30;;;;;;5013966;28;20414;-73
2023/06/20 07:22:21;;;;;;;0.93;0.93;;;33.60;65.10;;;;;;5013814;28;20256;-70
2023/06/20 07:24:47;;;;;;;1.43;1.30;;;33.50;68.80;;;;;;5013992;28;20254;-72
2023/06/20 07:27:13;;;;;;;1.27;1.17;;;32.80;65.70;;;;;;5013930;28;20261;-72
2023/06/20 07:29:39;;;;;;;1.20;1.10;;;32.40;71.10;;;;;;5013918;28;20202;-73
2023/06/20 07:32:05;;;;;;;1.73;1.50;;;32.30;69.40;;;;;;5013596;28;20258;-71
2023/06/20 07:34:31;;;;;;;1.07;0.93;;;32.20;69.40;;;;;;4996290;28;20494;-71
2023/06/20 07:36:56;;;;;;;1.03;0.93;;;32.60;79.50;;;;;;5013745;28;20163;-72
2023/06/20 07:39:22;;;;;;;0.70;0.70;;;32.60;66.60;;;;;;5013941;28;20202;-73
2023/06/20 07:41:48;;;;;;;0.83;0.80;;;32.90;63.60;;;;;;5013570;28;20171;-73
2023/06/20 07:44:13;;;;;;;2.50;1.03;;;33.20;66.30;;;;;;5013829;28;20163;-73
2023/06/20 07:46:39;;;;;;;1.33;1.23;;;33.50;67.50;;;;;;5013981;28;20172;-70
2023/06/20 07:49:06;;;;;;;1.33;1.23;;;33.80;65.90;;;;;;5013433;28;20192;-71
2023/06/20 07:51:33;;;;;;;1.93;1.17;;;34.10;62.50;;;;;;5013819;28;20248;-72
2023/06/20 07:53:59;;;;;;;1.00;1.00;;;34.50;61.00;;;;;;5013697;28;20410;-71
2023/06/20 07:56:25;;;;;;;1.47;1.07;;;35.40;62.70;;;;;;5013648;28;20774;-71
2023/06/20 07:58:51;;;;;;;1.10;1.07;;;36.10;59.40;;;;;;5013482;28;20422;-73
2023/06/20 08:01:17;;;;;;;1.83;1.17;;;36.10;55.90;;;;;;5013449;28;20164;-73
2023/06/20 08:03:43;;;;;;;0.80;0.80;;;36.40;54.40;;;;;;5013560;28;20411;-71
2023/06/20 08:06:10;;;;;;;1.10;1.00;;;36.90;56.00;;;;;;5013517;28;20416;-73
2023/06/20 08:08:36;;;;;;;1.97;1.00;;;38.00;53.30;;;;;;5013215;28;20294;-74
2023/06/20 08:11:02;;;;;;;1.40;1.20;;;38.90;51.80;;;;;;5014337;28;20540;-74
2023/06/20 08:13:28;;;;;;;1.20;1.10;;;39.10;51.40;;;;;;5017582;28;20195;-72
2023/06/20 08:15:53;;;;;;;1.53;1.43;;;38.40;51.20;;;;;;5017486;28;20171;-71
2023/06/20 08:18:19;;;;;;;0.80;0.70;;;38.30;52.00;;;;;;5017290;28;20542;-71
2023/06/20 08:20:45;;;;;;;1.00;0.80;;;38.80;49.00;;;;;;5017491;28;20171;-73
2023/06/20 08:23:11;;;;;;;1.50;1.23;;;39.10;47.60;;;;;;5017171;28;20266;-71
2023/06/20 08:25:36;;;;;;;1.67;1.10;;;38.80;48.30;;;;;;5017476;28;20918;-71
2023/06/20 08:28:02;;;;;;;0.80;0.80;;;38.20;47.40;;;;;;5017245;28;20206;-72
2023/06/20 08:30:28;;;;;;;1.30;1.20;;;38.40;49.20;;;;;;5017096;28;20202;-71
2023/06/20 08:32:53;;;;;;;0.83;0.83;;;38.70;47.70;;;;;;5016853;28;20167;-73
2023/06/20 08:35:19;;;;;;;1.10;1.00;;;38.50;45.30;;;;;;5017254;28;20190;-72
2023/06/20 08:37:44;;;;;;;1.40;1.30;;;38.10;44.30;;;;;;5017108;28;20230;-70
2023/06/20 08:40:12;;;;;;;0.90;0.83;;;37.80;44.50;;;;;;5016895;28;20176;-71
2023/06/20 08:42:40;;;;;;;0.93;0.90;;;37.80;45.80;;;;;;5016905;28;20199;-73
2023/06/20 08:45:07;;;;;;;1.70;1.60;;;38.10;46.80;;;;;;5017057;28;20827;-72
2023/06/20 08:47:33;;;;;;;1.00;1.00;;;38.30;45.00;;;;;;5016659;28;20422;-72
2023/06/20 08:49:59;;;;;;;1.07;1.00;;;37.40;44.40;;;;;;5016734;28;20453;-72
2023/06/20 08:52:29;;;;;;;1.03;0.90;;;36.90;46.30;;;;;;5016631;28;20184;-71
2023/06/20 08:54:55;;;;;;;1.30;1.20;;;37.10;46.00;;;;;;5016855;28;20306;-71
2023/06/20 08:57:21;;;;;;;1.50;1.40;;;36.90;43.90;;;;;;5016695;28;20437;-73
2023/06/20 08:59:47;;;;;;;1.27;1.17;;;37.30;45.20;;;;;;5016505;28;20603;-73
2023/06/20 09:02:13;;;;;;;1.00;0.87;;;38.10;44.20;;;;;;5016294;28;20764;-71
2023/06/20 09:04:39;;;;;;;1.03;1.00;;;38.70;42.20;;;;;;5016695;28;20407;-72
2023/06/20 09:07:18;;;;;;;1.40;1.30;;;38.60;41.90;;;;;;5016763;28;20266;-72
2023/06/20 09:09:45;;;;;;;1.17;1.03;;;38.30;40.50;;;;;;5016200;28;20576;-73
2023/06/20 09:12:10;;;;;;;1.13;1.00;;;37.80;41.10;;;;;;5016231;28;20796;-72
2023/06/20 09:14:36;;;;;;;1.13;0.87;;;37.80;41.50;;;;;;5016429;28;20479;-72
2023/06/20 09:17:03;;;;;;;1.30;1.20;;;37.30;42.70;;;;;;5016213;28;20191;-71
2023/06/20 09:19:43;;;;;;;1.70;0.90;;;37.10;41.20;;;;;;5016220;28;20174;-70
2023/06/20 09:22:16;;;;;;;1.40;1.00;;;36.60;42.00;;;;;;5015554;28;20406;-73
2023/06/20 09:24:43;;;;;;;1.43;1.33;;;36.50;42.10;;;;;;5016125;28;20398;-70
2023/06/20 09:27:08;;;;;;;2.57;1.17;;;36.00;43.70;;;;;;5016190;28;20484;-71
2023/06/20 09:29:49;;;;;;;0.73;0.73;;;35.60;43.00;;;;;;5015998;28;20450;-73
2023/06/20 09:32:21;;;;;;;1.53;1.27;;;35.80;43.20;;;;;;5015976;28;20160;-71
2023/06/20 09:34:47;;;;;;;1.53;1.43;;;35.90;47.30;;;;;;5016094;28;20438;-72
2023/06/20 09:37:19;;;;;;;1.80;0.80;;;36.20;44.70;;;;;;5016042;28;20445;-73
2023/06/20 09:39:45;;;;;;;0.80;0.80;;;36.10;42.40;;;;;;5015851;28;20171;-71
2023/06/20 09:42:12;;;;;;;0.93;0.83;;;36.10;44.50;;;;;;5015693;28;20779;-72
2023/06/20 09:44:39;;;;;;;0.80;0.73;;;36.30;46.30;;;;;;5015686;28;20178;-72
2023/06/20 09:47:05;;;;;;;1.03;0.87;;;36.60;48.00;;;;;;5015699;28;20477;-74
2023/06/20 09:49:39;;;;;;;1.63;1.43;;;36.80;43.10;;;;;;5015582;28;20954;-72
2023/06/20 09:52:07;;;;;;;0.80;0.73;;;37.00;41.60;;;;;;5015487;28;20402;-72
2023/06/20 09:54:57;;;;;;;1.60;1.50;;;37.00;46.00;;;;;;5015499;28;20492;-71
2023/06/20 09:57:34;;;;;;;1.50;1.40;;;37.00;39.70;;;;;;5015699;28;20426;-73
2023/06/20 10:00:01;;;;;;;1.27;1.17;;;36.90;41.60;;;;;;5015430;28;20391;-70
2023/06/20 10:02:28;;;;;;;1.30;1.20;;;36.70;40.70;;;;;;5015279;28;20464;-71
2023/06/20 10:04:55;;;;;;;2.17;1.00;;;36.40;41.60;;;;;;5015463;28;20548;-73
2023/06/20 10:07:21;;;;;;;1.30;1.20;;;36.00;46.00;;;;;;5015504;28;20961;-70
2023/06/20 10:09:48;;;;;;;3.23;1.13;;;35.60;43.20;;;;;;5015247;28;20545;-72
2023/06/20 10:12:15;;;;;;;3.30;1.30;;;35.40;42.70;;;;;;5015044;28;20403;-71
2023/06/20 10:14:41;;;;;;;0.93;0.90;;;35.80;44.20;;;;;;5015384;28;20399;-71
2023/06/20 10:17:09;;;;;;;5.03;1.60;;;35.90;43.20;;;;;;5015086;28;20414;-72
2023/06/20 10:19:51;;;;;;;1.13;0.90;;;35.90;41.20;;;;;;5015352;28;20407;-73
2023/06/20 10:22:33;;;;;;;1.80;1.37;;;35.60;40.90;;;;;;5015064;28;20411;-73
2023/06/20 10:25:12;;;;;;;1.50;1.20;;;35.30;43.80;;;;;;5015104;28;20925;-70
2023/06/20 10:27:44;;;;;;;3.80;1.33;;;35.20;44.30;;;;;;5015279;28;20536;-71
2023/06/20 10:30:15;;;;;;;2.17;1.30;;;35.00;45.90;;;;;;5014894;28;20454;-71
2023/06/20 10:33:08;;;;;;;2.27;1.87;;;34.90;43.90;;;;;;5015147;28;20414;-73
2023/06/20 10:35:34;;;;;;;1.37;1.20;;;34.90;45.30;;;;;;5006864;28;20418;-71
2023/06/20 10:38:08;;;;;;;1.57;1.20;;;34.50;46.40;;;;;;5014711;28;20778;-72
2023/06/20 10:40:35;;;;;;;7.57;1.33;;;34.40;46.00;;;;;;5014685;28;20217;-71
2023/06/20 10:43:08;;;;;;;1.50;1.30;;;34.20;48.00;;;;;;5014642;28;20431;-72
2023/06/20 10:45:34;;;;;;;1.63;1.50;;;34.30;46.70;;;;;;5014753;28;20390;-71
2023/06/20 10:48:03;;;;;;;2.13;1.70;;;34.30;45.40;;;;;;5014688;28;20941;-70
2023/06/20 10:50:30;;;;;;;1.93;1.43;;;34.20;48.60;;;;;;5014432;28;20817;-72
2023/06/20 10:53:00;;;;;;;1.77;1.67;;;34.40;46.30;;;;;;5014326;28;20822;-70
2023/06/20 10:55:27;;;;;;;3.40;1.33;;;34.50;45.00;;;;;;5014573;28;20409;-73
2023/06/20 10:57:53;;;;;;;1.07;1.00;;;34.20;46.00;;;;;;5014337;28;20809;-70
2023/06/20 11:00:21;;;;;;;1.30;1.17;;;33.70;47.20;;;;;;5014459;28;20472;-72
2023/06/20 11:02:56;;;;;;;2.47;1.47;;;33.10;48.40;;;;;;5014105;28;20406;-70
2023/06/20 11:05:26;;;;;;;1.63;1.53;;;32.80;48.80;;;;;;5014514;28;20497;-71
2023/06/20 11:07:58;;;;;;;2.03;1.83;;;32.90;47.60;;;;;;5014071;28;20474;-72
2023/06/20 11:10:34;;;;;;;1.27;1.17;;;32.80;48.10;;;;;;5014256;28;20453;-70
2023/06/20 11:13:02;;;;;;;1.00;0.90;;;32.70;49.70;;;;;;5014169;28;20932;-73
2023/06/20 11:15:30;;;;;;;1.83;1.33;;;32.50;45.00;;;;;;5014563;28;20414;-71
2023/06/20 11:17:57;;;;;;;3.43;1.83;;;32.20;44.30;;;;;;5014016;28;20430;-72
2023/06/20 11:20:26;;;;;;;2.00;1.50;;;32.20;44.60;;;;;;5014250;28;20452;-73
2023/06/20 11:22:57;;;;;;;1.63;1.50;;;32.20;45.40;;;;;;5013987;28;20411;-72
2023/06/20 11:25:25;;;;;;;2.53;1.50;;;32.30;47.60;;;;;;5013973;28;20444;-72
2023/06/20 11:27:51;;;;;;;1.83;1.40;;;32.40;48.80;;;;;;5013989;28;20437;-70
2023/06/20 11:30:24;;;;;;;1.73;1.03;;;32.50;45.60;;;;;;5013725;28;20450;-71
2023/06/20 11:33:03;;;;;;;1.70;0.90;;;32.50;49.00;;;;;;5013797;28;20403;-73
2023/06/20 11:35:41;;;;;;;1.53;1.20;;;32.50;47.50;;;;;;5013945;28;20398;-70
2023/06/20 11:38:09;;;;;;;1.30;1.20;;;32.50;47.90;;;;;;5013751;28;20426;-72
2023/06/20 11:40:34;;;;;;;1.63;1.33;;;32.50;49.70;;;;;;5013743;28;20406;-73
2023/06/20 11:43:00;;;;;;;1.00;1.00;;;32.30;48.40;;;;;;5013614;28;20982;-73
2023/06/20 11:45:26;;;;;;;1.97;1.10;;;32.20;45.50;;;;;;5013379;28;20171;-72
2023/06/20 11:48:14;;;;;;;1.17;1.07;;;32.10;47.00;;;;;;5013551;28;20238;-72
2023/06/20 11:50:42;;;;;;;0.80;0.80;;;31.80;48.00;;;;;;5013849;28;20477;-72
2023/06/20 11:53:31;;;;;;;1.60;1.40;;;31.60;48.20;;;;;;5013425;28;20886;-73
2023/06/20 11:55:59;;;;;;;2.00;1.80;;;31.20;46.90;;;;;;5013745;28;20395;-73
2023/06/20 11:58:29;;;;;;;6.37;2.30;;;31.30;46.10;;;;;;5013487;28;20429;-73
2023/06/20 12:01:22;;;;;;;2.70;1.67;;;31.30;47.60;;;;;;5013649;28;20406;-70
2023/06/20 12:04:02;;;;;;;0.80;0.70;;;31.60;46.70;;;;;;5010859;28;20514;-73
2023/06/20 12:06:27;;;;;;;2.20;1.13;;;31.20;47.20;;;;;;5013690;28;20406;-72
2023/06/20 12:08:57;;;;;;;3.50;1.57;;;31.10;51.10;;;;;;5013281;28;20876;-71
2023/06/20 12:11:24;;;;;;;1.13;1.03;;;31.10;46.50;;;;;;5013313;28;20195;-70
2023/06/20 12:13:52;;;;;;;2.37;1.50;;;31.20;47.90;;;;;;5013841;28;20406;-72
2023/06/20 12:16:19;;;;;;;0.90;0.80;;;31.10;48.70;;;;;;5013463;28;20403;-73
2023/06/20 12:18:46;;;;;;;2.60;1.60;;;30.80;47.80;;;;;;5013332;28;20922;-73
2023/06/20 12:21:12;;;;;;;1.50;1.37;;;30.70;50.70;;;;;;5013346;28;20398;-72
2023/06/20 12:23:37;;;;;;;2.23;1.10;;;30.80;50.50;;;;;;5013463;28;20489;-73
2023/06/20 12:26:03;;;;;;;2.43;1.10;;;30.60;53.20;;;;;;5013285;28;20442;-73
2023/06/20 12:28:30;;;;;;;1.30;1.20;;;30.60;49.30;;;;;;5013512;28;20199;-72
2023/06/20 12:30:59;;;;;;;1.27;1.17;;;30.80;48.10;;;;;;5013034;28;20222;-70
2023/06/20 12:33:27;;;;;;;1.80;1.27;;;30.60;47.60;;;;;;5013376;28;20418;-72
2023/06/20 12:35:53;;;;;;;1.30;1.20;;;30.10;48.90;;;;;;5013718;28;20410;-73
2023/06/20 12:38:19;;;;;;;0.77;0.77;;;29.80;49.20;;;;;;5013279;28;20433;-70
2023/06/20 12:40:44;;;;;;;1.30;1.20;;;29.90;48.60;;;;;;5013149;28;20171;-72
2023/06/20 12:43:10;;;;;;;2.60;1.73;;;30.00;49.00;;;;;;5012990;28;20255;-73
2023/06/20 12:45:36;;;;;;;1.33;1.23;;;30.10;49.40;;;;;;5013209;28;20678;-72
2023/06/20 12:48:02;;;;;;;0.90;0.87;;;30.10;52.10;;;;;;5013115;28;20434;-73
2023/06/20 12:50:28;;;;;;;1.77;1.43;;;30.10;49.30;;;;;;5013270;28;20616;-72
2023/06/20 12:52:54;;;;;;;1.27;1.10;;;30.20;48.20;;;;;;5012934;28;20489;-71